sensor_id;sensor_type;location;lat;lon;timestamp;P1;durP1;ratioP1;P2;durP2;ratioP2
66487;SDS011;53304;54.550;18.526;2022-08-25T00:01:20;6.50;;;2.60;;
66487;SDS011;53304;54.550;18.526;2022-08-25T00:03:51;8.60;;;2.80;;
66487;SDS011;53304;54.550;18.526;2022-08-25T00:06:16;8.07;;;2.72;;
66487;SDS011;53304;54.550;18.526;2022-08-25T00:08:43;8.10;;;2.85;;
66487;SDS011;53304;54.550;18.526;2022-08-25T00:11:12;8.55;;;2.78;;
66487;SDS011;53304;54.550;18.526;2022-08-25T00:13:39;6.80;;;2.63;;
66487;SDS011;53304;54.550;18.526;2022-08-25T00:16:13;7.15;;;2.60;;
66487;SDS011;53304;54.550;18.526;2022-08-25T00:18:41;7.90;;;2.65;;
66487;SDS011;53304;54.550;18.526;2022-08-25T00:21:09;6.68;;;2.70;;
66487;SDS011;53304;54.550;18.526;2022-08-25T00:23:35;8.43;;;2.70;;
66487;SDS011;53304;54.550;18.526;2022-08-25T00:26:04;7.70;;;2.70;;
66487;SDS011;53304;54.550;18.526;2022-08-25T00:28:32;7.05;;;2.85;;
66487;SDS011;53304;54.550;18.526;2022-08-25T00:30:58;6.40;;;2.97;;
66487;SDS011;53304;54.550;18.526;2022-08-25T00:33:25;7.65;;;3.17;;
66487;SDS011;53304;54.550;18.526;2022-08-25T00:35:50;9.93;;;3.17;;
66487;SDS011;53304;54.550;18.526;2022-08-25T00:38:16;7.20;;;2.65;;
66487;SDS011;53304;54.550;18.526;2022-08-25T00:40:45;8.48;;;3.05;;
66487;SDS011;53304;54.550;18.526;2022-08-25T00:43:32;9.48;;;3.05;;
66487;SDS011;53304;54.550;18.526;2022-08-25T00:46:15;6.25;;;3.05;;
66487;SDS011;53304;54.550;18.526;2022-08-25T00:48:43;7.32;;;2.92;;
66487;SDS011;53304;54.550;18.526;2022-08-25T00:51:10;7.97;;;2.88;;
66487;SDS011;53304;54.550;18.526;2022-08-25T00:53:40;7.43;;;3.40;;
66487;SDS011;53304;54.550;18.526;2022-08-25T00:56:09;7.28;;;3.15;;
66487;SDS011;53304;54.550;18.526;2022-08-25T00:58:37;8.25;;;3.05;;
66487;SDS011;53304;54.550;18.526;2022-08-25T01:01:05;10.00;;;3.72;;
66487;SDS011;53304;54.550;18.526;2022-08-25T01:03:33;9.80;;;3.40;;
66487;SDS011;53304;54.550;18.526;2022-08-25T01:06:01;7.35;;;3.05;;
66487;SDS011;53304;54.550;18.526;2022-08-25T01:08:30;10.82;;;3.22;;
66487;SDS011;53304;54.550;18.526;2022-08-25T01:10:57;8.63;;;3.53;;
66487;SDS011;53304;54.550;18.526;2022-08-25T01:13:28;7.45;;;3.30;;
66487;SDS011;53304;54.550;18.526;2022-08-25T01:16:06;6.20;;;2.92;;
66487;SDS011;53304;54.550;18.526;2022-08-25T01:18:46;8.75;;;3.15;;
66487;SDS011;53304;54.550;18.526;2022-08-25T01:21:14;7.72;;;3.88;;
66487;SDS011;53304;54.550;18.526;2022-08-25T01:23:41;8.80;;;3.40;;
66487;SDS011;53304;54.550;18.526;2022-08-25T01:26:12;7.80;;;3.20;;
66487;SDS011;53304;54.550;18.526;2022-08-25T01:28:40;9.27;;;3.50;;
66487;SDS011;53304;54.550;18.526;2022-08-25T01:31:26;8.05;;;3.70;;
66487;SDS011;53304;54.550;18.526;2022-08-25T01:33:52;9.60;;;3.60;;
66487;SDS011;53304;54.550;18.526;2022-08-25T01:36:21;9.70;;;3.67;;
66487;SDS011;53304;54.550;18.526;2022-08-25T01:38:47;8.25;;;3.85;;
66487;SDS011;53304;54.550;18.526;2022-08-25T01:41:25;10.65;;;3.80;;
66487;SDS011;53304;54.550;18.526;2022-08-25T01:43:56;8.00;;;3.50;;
66487;SDS011;53304;54.550;18.526;2022-08-25T01:46:24;9.18;;;3.42;;
66487;SDS011;53304;54.550;18.526;2022-08-25T01:48:50;11.85;;;3.67;;
66487;SDS011;53304;54.550;18.526;2022-08-25T01:51:16;6.85;;;3.50;;
66487;SDS011;53304;54.550;18.526;2022-08-25T01:53:46;12.43;;;4.18;;
66487;SDS011;53304;54.550;18.526;2022-08-25T01:56:16;9.68;;;4.13;;
66487;SDS011;53304;54.550;18.526;2022-08-25T01:58:45;10.30;;;3.90;;
66487;SDS011;53304;54.550;18.526;2022-08-25T02:01:14;10.25;;;4.07;;
66487;SDS011;53304;54.550;18.526;2022-08-25T02:03:45;9.25;;;3.88;;
66487;SDS011;53304;54.550;18.526;2022-08-25T02:06:13;11.82;;;4.10;;
66487;SDS011;53304;54.550;18.526;2022-08-25T02:08:40;10.13;;;3.97;;
66487;SDS011;53304;54.550;18.526;2022-08-25T02:11:09;8.07;;;3.97;;
66487;SDS011;53304;54.550;18.526;2022-08-25T02:13:36;9.70;;;4.00;;
66487;SDS011;53304;54.550;18.526;2022-08-25T02:16:02;9.35;;;4.43;;
66487;SDS011;53304;54.550;18.526;2022-08-25T02:18:31;9.48;;;4.32;;
66487;SDS011;53304;54.550;18.526;2022-08-25T02:20:59;9.20;;;3.97;;
66487;SDS011;53304;54.550;18.526;2022-08-25T02:23:27;12.05;;;4.28;;
66487;SDS011;53304;54.550;18.526;2022-08-25T02:25:52;8.63;;;4.03;;
66487;SDS011;53304;54.550;18.526;2022-08-25T02:28:20;10.52;;;4.25;;
66487;SDS011;53304;54.550;18.526;2022-08-25T02:30:48;10.80;;;4.15;;
66487;SDS011;53304;54.550;18.526;2022-08-25T02:33:13;9.02;;;3.90;;
66487;SDS011;53304;54.550;18.526;2022-08-25T02:35:39;10.05;;;4.40;;
66487;SDS011;53304;54.550;18.526;2022-08-25T02:38:04;8.32;;;3.97;;
66487;SDS011;53304;54.550;18.526;2022-08-25T02:40:30;8.55;;;4.28;;
66487;SDS011;53304;54.550;18.526;2022-08-25T02:42:55;8.73;;;3.88;;
66487;SDS011;53304;54.550;18.526;2022-08-25T02:45:26;8.05;;;4.18;;
66487;SDS011;53304;54.550;18.526;2022-08-25T02:47:51;8.23;;;4.03;;
66487;SDS011;53304;54.550;18.526;2022-08-25T02:50:19;8.82;;;4.03;;
66487;SDS011;53304;54.550;18.526;2022-08-25T02:52:44;10.73;;;4.20;;
66487;SDS011;53304;54.550;18.526;2022-08-25T02:55:10;10.50;;;4.05;;
66487;SDS011;53304;54.550;18.526;2022-08-25T02:57:41;9.25;;;3.90;;
66487;SDS011;53304;54.550;18.526;2022-08-25T03:00:08;9.25;;;4.15;;
66487;SDS011;53304;54.550;18.526;2022-08-25T03:02:37;9.63;;;4.22;;
66487;SDS011;53304;54.550;18.526;2022-08-25T03:05:05;8.25;;;4.38;;
66487;SDS011;53304;54.550;18.526;2022-08-25T03:07:32;9.30;;;4.10;;
66487;SDS011;53304;54.550;18.526;2022-08-25T03:09:57;9.15;;;4.43;;
66487;SDS011;53304;54.550;18.526;2022-08-25T03:12:25;11.02;;;4.30;;
66487;SDS011;53304;54.550;18.526;2022-08-25T03:14:50;8.65;;;3.97;;
66487;SDS011;53304;54.550;18.526;2022-08-25T03:17:15;7.53;;;3.72;;
66487;SDS011;53304;54.550;18.526;2022-08-25T03:19:41;10.60;;;4.43;;
66487;SDS011;53304;54.550;18.526;2022-08-25T03:22:09;9.45;;;4.10;;
66487;SDS011;53304;54.550;18.526;2022-08-25T03:24:34;7.70;;;3.80;;
66487;SDS011;53304;54.550;18.526;2022-08-25T03:27:02;9.60;;;3.95;;
66487;SDS011;53304;54.550;18.526;2022-08-25T03:29:29;10.60;;;4.07;;
66487;SDS011;53304;54.550;18.526;2022-08-25T03:31:56;8.60;;;4.20;;
66487;SDS011;53304;54.550;18.526;2022-08-25T03:34:25;7.15;;;3.90;;
66487;SDS011;53304;54.550;18.526;2022-08-25T03:36:55;7.70;;;3.90;;
66487;SDS011;53304;54.550;18.526;2022-08-25T03:39:22;7.63;;;3.70;;
66487;SDS011;53304;54.550;18.526;2022-08-25T03:41:51;8.20;;;3.88;;
66487;SDS011;53304;54.550;18.526;2022-08-25T03:44:17;9.93;;;4.40;;
66487;SDS011;53304;54.550;18.526;2022-08-25T03:46:47;8.98;;;4.35;;
66487;SDS011;53304;54.550;18.526;2022-08-25T03:49:17;8.70;;;4.03;;
66487;SDS011;53304;54.550;18.526;2022-08-25T03:51:47;9.23;;;4.22;;
66487;SDS011;53304;54.550;18.526;2022-08-25T03:54:17;11.65;;;4.10;;
66487;SDS011;53304;54.550;18.526;2022-08-25T03:56:44;7.00;;;3.90;;
66487;SDS011;53304;54.550;18.526;2022-08-25T03:59:12;7.05;;;3.85;;
66487;SDS011;53304;54.550;18.526;2022-08-25T04:01:40;7.95;;;4.30;;
66487;SDS011;53304;54.550;18.526;2022-08-25T04:04:07;7.40;;;4.20;;
66487;SDS011;53304;54.550;18.526;2022-08-25T04:06:33;9.45;;;4.07;;
66487;SDS011;53304;54.550;18.526;2022-08-25T04:09:01;9.93;;;4.30;;
66487;SDS011;53304;54.550;18.526;2022-08-25T04:11:27;11.45;;;4.00;;
66487;SDS011;53304;54.550;18.526;2022-08-25T04:13:55;9.50;;;4.20;;
66487;SDS011;53304;54.550;18.526;2022-08-25T04:16:23;10.13;;;4.30;;
66487;SDS011;53304;54.550;18.526;2022-08-25T04:18:54;7.43;;;3.97;;
66487;SDS011;53304;54.550;18.526;2022-08-25T04:21:20;10.38;;;4.10;;
66487;SDS011;53304;54.550;18.526;2022-08-25T04:23:47;9.57;;;4.05;;
66487;SDS011;53304;54.550;18.526;2022-08-25T04:26:23;10.57;;;4.60;;
66487;SDS011;53304;54.550;18.526;2022-08-25T04:28:51;8.20;;;3.92;;
66487;SDS011;53304;54.550;18.526;2022-08-25T04:31:17;7.45;;;4.00;;
66487;SDS011;53304;54.550;18.526;2022-08-25T04:33:43;10.63;;;4.50;;
66487;SDS011;53304;54.550;18.526;2022-08-25T04:36:12;10.55;;;4.32;;
66487;SDS011;53304;54.550;18.526;2022-08-25T04:38:41;10.57;;;4.53;;
66487;SDS011;53304;54.550;18.526;2022-08-25T04:41:07;8.75;;;4.30;;
66487;SDS011;53304;54.550;18.526;2022-08-25T04:43:34;9.68;;;4.60;;
66487;SDS011;53304;54.550;18.526;2022-08-25T04:46:10;9.40;;;4.20;;
66487;SDS011;53304;54.550;18.526;2022-08-25T04:48:44;9.50;;;4.57;;
66487;SDS011;53304;54.550;18.526;2022-08-25T04:51:11;12.93;;;4.18;;
66487;SDS011;53304;54.550;18.526;2022-08-25T04:53:39;10.02;;;4.20;;
66487;SDS011;53304;54.550;18.526;2022-08-25T04:56:06;8.90;;;4.35;;
66487;SDS011;53304;54.550;18.526;2022-08-25T04:58:33;9.18;;;4.50;;
66487;SDS011;53304;54.550;18.526;2022-08-25T05:01:18;10.75;;;4.00;;
66487;SDS011;53304;54.550;18.526;2022-08-25T05:03:57;11.45;;;4.68;;
66487;SDS011;53304;54.550;18.526;2022-08-25T05:06:31;11.77;;;4.38;;
66487;SDS011;53304;54.550;18.526;2022-08-25T05:08:57;9.45;;;4.78;;
66487;SDS011;53304;54.550;18.526;2022-08-25T05:11:23;8.57;;;4.68;;
66487;SDS011;53304;54.550;18.526;2022-08-25T05:13:50;12.15;;;4.68;;
66487;SDS011;53304;54.550;18.526;2022-08-25T05:16:19;14.02;;;4.10;;
66487;SDS011;53304;54.550;18.526;2022-08-25T05:18:45;11.77;;;4.47;;
66487;SDS011;53304;54.550;18.526;2022-08-25T05:21:14;11.90;;;4.20;;
66487;SDS011;53304;54.550;18.526;2022-08-25T05:23:44;10.43;;;4.40;;
66487;SDS011;53304;54.550;18.526;2022-08-25T05:26:14;17.25;;;5.43;;
66487;SDS011;53304;54.550;18.526;2022-08-25T05:28:41;17.80;;;5.57;;
66487;SDS011;53304;54.550;18.526;2022-08-25T05:31:07;14.23;;;4.82;;
66487;SDS011;53304;54.550;18.526;2022-08-25T05:33:38;14.43;;;4.63;;
66487;SDS011;53304;54.550;18.526;2022-08-25T05:36:04;12.32;;;5.10;;
66487;SDS011;53304;54.550;18.526;2022-08-25T05:38:30;16.63;;;5.38;;
66487;SDS011;53304;54.550;18.526;2022-08-25T05:40:56;17.65;;;5.15;;
66487;SDS011;53304;54.550;18.526;2022-08-25T05:43:24;25.02;;;5.88;;
66487;SDS011;53304;54.550;18.526;2022-08-25T05:45:52;14.18;;;5.30;;
66487;SDS011;53304;54.550;18.526;2022-08-25T05:48:21;20.27;;;5.40;;
66487;SDS011;53304;54.550;18.526;2022-08-25T05:50:51;13.20;;;5.28;;
66487;SDS011;53304;54.550;18.526;2022-08-25T05:53:16;13.70;;;5.15;;
66487;SDS011;53304;54.550;18.526;2022-08-25T05:55:47;22.17;;;5.55;;
66487;SDS011;53304;54.550;18.526;2022-08-25T05:58:14;19.58;;;6.00;;
66487;SDS011;53304;54.550;18.526;2022-08-25T06:00:42;17.13;;;5.75;;
66487;SDS011;53304;54.550;18.526;2022-08-25T06:03:12;20.65;;;6.15;;
66487;SDS011;53304;54.550;18.526;2022-08-25T06:05:38;16.85;;;6.22;;
66487;SDS011;53304;54.550;18.526;2022-08-25T06:08:03;18.30;;;5.13;;
66487;SDS011;53304;54.550;18.526;2022-08-25T06:10:33;17.05;;;5.38;;
66487;SDS011;53304;54.550;18.526;2022-08-25T06:13:01;13.80;;;4.90;;
66487;SDS011;53304;54.550;18.526;2022-08-25T06:15:27;14.85;;;5.47;;
66487;SDS011;53304;54.550;18.526;2022-08-25T06:17:53;15.73;;;5.00;;
66487;SDS011;53304;54.550;18.526;2022-08-25T06:20:22;14.32;;;5.40;;
66487;SDS011;53304;54.550;18.526;2022-08-25T06:22:53;18.38;;;5.28;;
66487;SDS011;53304;54.550;18.526;2022-08-25T06:25:20;12.32;;;5.55;;
66487;SDS011;53304;54.550;18.526;2022-08-25T06:27:49;11.55;;;5.05;;
66487;SDS011;53304;54.550;18.526;2022-08-25T06:30:18;9.52;;;5.00;;
66487;SDS011;53304;54.550;18.526;2022-08-25T06:32:44;11.90;;;4.93;;
66487;SDS011;53304;54.550;18.526;2022-08-25T06:35:15;13.13;;;5.35;;
66487;SDS011;53304;54.550;18.526;2022-08-25T06:37:42;11.27;;;5.25;;
66487;SDS011;53304;54.550;18.526;2022-08-25T06:40:08;13.65;;;5.35;;
66487;SDS011;53304;54.550;18.526;2022-08-25T06:42:34;12.52;;;5.32;;
66487;SDS011;53304;54.550;18.526;2022-08-25T06:45:02;13.35;;;5.65;;
66487;SDS011;53304;54.550;18.526;2022-08-25T06:47:28;14.70;;;5.32;;
66487;SDS011;53304;54.550;18.526;2022-08-25T06:49:56;12.82;;;5.30;;
66487;SDS011;53304;54.550;18.526;2022-08-25T06:52:22;14.50;;;5.60;;
66487;SDS011;53304;54.550;18.526;2022-08-25T06:54:47;11.75;;;5.15;;
66487;SDS011;53304;54.550;18.526;2022-08-25T06:57:13;11.38;;;5.38;;
66487;SDS011;53304;54.550;18.526;2022-08-25T06:59:38;12.27;;;5.32;;
66487;SDS011;53304;54.550;18.526;2022-08-25T07:02:04;15.73;;;5.88;;
66487;SDS011;53304;54.550;18.526;2022-08-25T07:04:31;10.77;;;4.90;;
66487;SDS011;53304;54.550;18.526;2022-08-25T07:06:57;13.30;;;6.07;;
66487;SDS011;53304;54.550;18.526;2022-08-25T07:09:23;14.35;;;5.70;;
66487;SDS011;53304;54.550;18.526;2022-08-25T07:11:53;10.25;;;5.57;;
66487;SDS011;53304;54.550;18.526;2022-08-25T07:14:18;11.55;;;5.88;;
66487;SDS011;53304;54.550;18.526;2022-08-25T07:16:49;12.27;;;5.63;;
66487;SDS011;53304;54.550;18.526;2022-08-25T07:19:15;14.95;;;5.50;;
66487;SDS011;53304;54.550;18.526;2022-08-25T07:21:44;12.00;;;5.97;;
66487;SDS011;53304;54.550;18.526;2022-08-25T07:24:13;13.32;;;5.65;;
66487;SDS011;53304;54.550;18.526;2022-08-25T07:26:39;15.75;;;5.40;;
66487;SDS011;53304;54.550;18.526;2022-08-25T07:29:16;11.70;;;6.75;;
66487;SDS011;53304;54.550;18.526;2022-08-25T07:31:44;14.00;;;6.03;;
66487;SDS011;53304;54.550;18.526;2022-08-25T07:34:11;16.10;;;6.45;;
66487;SDS011;53304;54.550;18.526;2022-08-25T07:36:56;16.13;;;6.00;;
66487;SDS011;53304;54.550;18.526;2022-08-25T07:39:24;13.55;;;5.57;;
66487;SDS011;53304;54.550;18.526;2022-08-25T07:41:52;12.77;;;6.07;;
66487;SDS011;53304;54.550;18.526;2022-08-25T07:44:21;15.73;;;6.07;;
66487;SDS011;53304;54.550;18.526;2022-08-25T07:46:52;11.43;;;6.05;;
66487;SDS011;53304;54.550;18.526;2022-08-25T07:49:19;13.32;;;6.43;;
66487;SDS011;53304;54.550;18.526;2022-08-25T07:51:50;13.77;;;7.25;;
66487;SDS011;53304;54.550;18.526;2022-08-25T07:54:16;12.20;;;6.75;;
66487;SDS011;53304;54.550;18.526;2022-08-25T07:56:44;12.68;;;6.95;;
66487;SDS011;53304;54.550;18.526;2022-08-25T07:59:10;14.75;;;7.55;;
66487;SDS011;53304;54.550;18.526;2022-08-25T08:01:37;14.40;;;7.80;;
66487;SDS011;53304;54.550;18.526;2022-08-25T08:04:06;16.15;;;8.10;;
66487;SDS011;53304;54.550;18.526;2022-08-25T08:06:34;16.17;;;8.25;;
66487;SDS011;53304;54.550;18.526;2022-08-25T08:09:02;15.23;;;8.38;;
66487;SDS011;53304;54.550;18.526;2022-08-25T08:11:29;17.52;;;8.45;;
66487;SDS011;53304;54.550;18.526;2022-08-25T08:13:58;16.85;;;8.80;;
66487;SDS011;53304;54.550;18.526;2022-08-25T08:16:27;17.98;;;8.73;;
66487;SDS011;53304;54.550;18.526;2022-08-25T08:18:53;19.52;;;8.77;;
66487;SDS011;53304;54.550;18.526;2022-08-25T08:21:23;20.25;;;9.70;;
66487;SDS011;53304;54.550;18.526;2022-08-25T08:23:51;19.77;;;9.13;;
66487;SDS011;53304;54.550;18.526;2022-08-25T08:26:20;21.33;;;10.05;;
66487;SDS011;53304;54.550;18.526;2022-08-25T08:28:47;24.63;;;10.18;;
66487;SDS011;53304;54.550;18.526;2022-08-25T08:31:13;19.52;;;9.30;;
66487;SDS011;53304;54.550;18.526;2022-08-25T08:33:39;21.50;;;9.85;;
66487;SDS011;53304;54.550;18.526;2022-08-25T08:36:06;25.60;;;9.38;;
66487;SDS011;53304;54.550;18.526;2022-08-25T08:38:34;19.35;;;9.30;;
66487;SDS011;53304;54.550;18.526;2022-08-25T08:44:00;20.02;;;9.25;;
66487;SDS011;53304;54.550;18.526;2022-08-25T08:55:33;16.02;;;8.35;;
66487;SDS011;53304;54.550;18.526;2022-08-25T08:58:20;18.15;;;8.57;;
66487;SDS011;53304;54.550;18.526;2022-08-25T09:00:50;18.17;;;8.50;;
66487;SDS011;53304;54.550;18.526;2022-08-25T09:03:28;17.48;;;8.02;;
66487;SDS011;53304;54.550;18.526;2022-08-25T09:05:59;13.93;;;8.20;;
66487;SDS011;53304;54.550;18.526;2022-08-25T09:08:28;16.92;;;8.65;;
66487;SDS011;53304;54.550;18.526;2022-08-25T09:17:38;20.92;;;8.73;;
66487;SDS011;53304;54.550;18.526;2022-08-25T09:25:31;19.58;;;8.63;;
66487;SDS011;53304;54.550;18.526;2022-08-25T09:33:48;18.02;;;8.02;;
66487;SDS011;53304;54.550;18.526;2022-08-25T09:36:19;18.40;;;8.93;;
66487;SDS011;53304;54.550;18.526;2022-08-25T09:38:47;21.70;;;8.88;;
66487;SDS011;53304;54.550;18.526;2022-08-25T09:41:14;18.70;;;9.15;;
66487;SDS011;53304;54.550;18.526;2022-08-25T09:43:50;18.67;;;8.73;;
66487;SDS011;53304;54.550;18.526;2022-08-25T09:46:26;19.52;;;8.77;;
66487;SDS011;53304;54.550;18.526;2022-08-25T09:48:56;24.08;;;9.23;;
66487;SDS011;53304;54.550;18.526;2022-08-25T09:53:55;22.05;;;9.75;;
66487;SDS011;53304;54.550;18.526;2022-08-25T09:56:23;18.02;;;8.45;;
66487;SDS011;53304;54.550;18.526;2022-08-25T09:58:51;18.90;;;8.68;;
66487;SDS011;53304;54.550;18.526;2022-08-25T10:01:25;20.95;;;8.90;;
66487;SDS011;53304;54.550;18.526;2022-08-25T10:06:18;19.45;;;8.00;;
66487;SDS011;53304;54.550;18.526;2022-08-25T10:11:13;18.48;;;8.38;;
66487;SDS011;53304;54.550;18.526;2022-08-25T10:14:01;20.67;;;8.38;;
66487;SDS011;53304;54.550;18.526;2022-08-25T10:16:42;18.38;;;8.23;;
66487;SDS011;53304;54.550;18.526;2022-08-25T10:19:10;24.65;;;8.75;;
66487;SDS011;53304;54.550;18.526;2022-08-25T10:22:03;20.67;;;8.07;;
66487;SDS011;53304;54.550;18.526;2022-08-25T10:24:32;25.20;;;8.07;;
66487;SDS011;53304;54.550;18.526;2022-08-25T10:27:35;24.55;;;8.48;;
66487;SDS011;53304;54.550;18.526;2022-08-25T10:35:15;25.27;;;8.40;;
66487;SDS011;53304;54.550;18.526;2022-08-25T10:43:05;24.73;;;8.63;;
66487;SDS011;53304;54.550;18.526;2022-08-25T10:45:40;21.60;;;7.93;;
66487;SDS011;53304;54.550;18.526;2022-08-25T10:56:40;26.40;;;7.68;;
66487;SDS011;53304;54.550;18.526;2022-08-25T11:04:45;18.10;;;7.80;;
66487;SDS011;53304;54.550;18.526;2022-08-25T11:09:51;23.25;;;7.38;;
66487;SDS011;53304;54.550;18.526;2022-08-25T11:12:41;20.48;;;7.88;;
66487;SDS011;53304;54.550;18.526;2022-08-25T11:15:14;23.35;;;7.75;;
66487;SDS011;53304;54.550;18.526;2022-08-25T11:17:44;19.80;;;7.25;;
66487;SDS011;53304;54.550;18.526;2022-08-25T11:20:16;18.55;;;7.38;;
66487;SDS011;53304;54.550;18.526;2022-08-25T11:22:45;21.10;;;7.32;;
66487;SDS011;53304;54.550;18.526;2022-08-25T11:30:57;19.65;;;7.60;;
66487;SDS011;53304;54.550;18.526;2022-08-25T11:33:24;19.20;;;7.25;;
66487;SDS011;53304;54.550;18.526;2022-08-25T11:36:01;19.17;;;7.28;;
66487;SDS011;53304;54.550;18.526;2022-08-25T11:49:57;20.90;;;7.95;;
66487;SDS011;53304;54.550;18.526;2022-08-25T11:57:40;18.80;;;7.82;;
66487;SDS011;53304;54.550;18.526;2022-08-25T12:00:14;22.58;;;8.50;;
66487;SDS011;53304;54.550;18.526;2022-08-25T12:27:18;22.95;;;7.82;;
66487;SDS011;53304;54.550;18.526;2022-08-25T12:37:25;19.27;;;7.95;;
66487;SDS011;53304;54.550;18.526;2022-08-25T12:40:01;24.35;;;8.20;;
66487;SDS011;53304;54.550;18.526;2022-08-25T12:42:30;22.90;;;8.30;;
66487;SDS011;53304;54.550;18.526;2022-08-25T12:47:51;19.80;;;9.13;;
66487;SDS011;53304;54.550;18.526;2022-08-25T12:50:42;19.90;;;8.43;;
66487;SDS011;53304;54.550;18.526;2022-08-25T12:56:00;22.00;;;8.40;;
66487;SDS011;53304;54.550;18.526;2022-08-25T12:58:32;19.17;;;8.32;;
66487;SDS011;53304;54.550;18.526;2022-08-25T13:07:15;26.75;;;9.50;;
66487;SDS011;53304;54.550;18.526;2022-08-25T13:18:20;26.92;;;9.20;;
66487;SDS011;53304;54.550;18.526;2022-08-25T13:20:52;22.42;;;8.98;;
66487;SDS011;53304;54.550;18.526;2022-08-25T13:23:26;25.27;;;9.63;;
66487;SDS011;53304;54.550;18.526;2022-08-25T13:25:56;29.15;;;9.60;;
66487;SDS011;53304;54.550;18.526;2022-08-25T13:28:24;23.55;;;9.98;;
66487;SDS011;53304;54.550;18.526;2022-08-25T13:33:55;21.50;;;9.02;;
66487;SDS011;53304;54.550;18.526;2022-08-25T13:36:23;24.63;;;9.88;;
66487;SDS011;53304;54.550;18.526;2022-08-25T13:39:12;25.98;;;9.77;;
66487;SDS011;53304;54.550;18.526;2022-08-25T13:41:48;24.52;;;9.15;;
66487;SDS011;53304;54.550;18.526;2022-08-25T13:44:18;29.90;;;10.48;;
66487;SDS011;53304;54.550;18.526;2022-08-25T13:46:47;30.77;;;10.05;;
66487;SDS011;53304;54.550;18.526;2022-08-25T13:49:29;22.30;;;9.68;;
66487;SDS011;53304;54.550;18.526;2022-08-25T13:51:54;21.55;;;9.77;;
66487;SDS011;53304;54.550;18.526;2022-08-25T13:54:24;20.15;;;9.95;;
66487;SDS011;53304;54.550;18.526;2022-08-25T13:56:53;20.58;;;9.45;;
66487;SDS011;53304;54.550;18.526;2022-08-25T13:59:23;22.50;;;10.82;;
66487;SDS011;53304;54.550;18.526;2022-08-25T14:01:50;25.95;;;10.18;;
66487;SDS011;53304;54.550;18.526;2022-08-25T14:17:41;21.10;;;10.73;;
66487;SDS011;53304;54.550;18.526;2022-08-25T14:20:19;22.52;;;11.30;;
66487;SDS011;53304;54.550;18.526;2022-08-25T14:23:06;24.10;;;11.60;;
66487;SDS011;53304;54.550;18.526;2022-08-25T14:25:37;24.80;;;11.57;;
66487;SDS011;53304;54.550;18.526;2022-08-25T14:28:08;27.60;;;10.93;;
66487;SDS011;53304;54.550;18.526;2022-08-25T14:30:38;28.92;;;12.40;;
66487;SDS011;53304;54.550;18.526;2022-08-25T14:33:07;31.67;;;12.45;;
66487;SDS011;53304;54.550;18.526;2022-08-25T14:35:38;26.48;;;11.35;;
66487;SDS011;53304;54.550;18.526;2022-08-25T14:38:08;38.50;;;12.70;;
66487;SDS011;53304;54.550;18.526;2022-08-25T14:40:37;31.48;;;12.43;;
66487;SDS011;53304;54.550;18.526;2022-08-25T14:43:03;29.42;;;11.85;;
66487;SDS011;53304;54.550;18.526;2022-08-25T14:45:32;25.08;;;11.43;;
66487;SDS011;53304;54.550;18.526;2022-08-25T14:48:02;28.33;;;12.40;;
66487;SDS011;53304;54.550;18.526;2022-08-25T14:50:29;26.33;;;13.15;;
66487;SDS011;53304;54.550;18.526;2022-08-25T14:52:55;31.15;;;12.75;;
66487;SDS011;53304;54.550;18.526;2022-08-25T14:55:23;28.20;;;13.40;;
66487;SDS011;53304;54.550;18.526;2022-08-25T14:57:48;29.33;;;13.23;;
66487;SDS011;53304;54.550;18.526;2022-08-25T15:00:13;29.45;;;13.70;;
66487;SDS011;53304;54.550;18.526;2022-08-25T15:02:44;25.65;;;13.27;;
66487;SDS011;53304;54.550;18.526;2022-08-25T15:05:12;27.85;;;13.30;;
66487;SDS011;53304;54.550;18.526;2022-08-25T15:07:40;27.65;;;13.27;;
66487;SDS011;53304;54.550;18.526;2022-08-25T15:10:24;35.90;;;13.68;;
66487;SDS011;53304;54.550;18.526;2022-08-25T15:12:49;26.60;;;14.40;;
66487;SDS011;53304;54.550;18.526;2022-08-25T15:15:17;36.45;;;14.50;;
66487;SDS011;53304;54.550;18.526;2022-08-25T15:17:43;31.30;;;14.25;;
66487;SDS011;53304;54.550;18.526;2022-08-25T15:20:09;28.35;;;13.13;;
66487;SDS011;53304;54.550;18.526;2022-08-25T15:22:37;26.10;;;13.95;;
66487;SDS011;53304;54.550;18.526;2022-08-25T15:25:02;34.38;;;14.15;;
66487;SDS011;53304;54.550;18.526;2022-08-25T15:27:31;33.05;;;14.30;;
66487;SDS011;53304;54.550;18.526;2022-08-25T15:29:57;33.67;;;14.35;;
66487;SDS011;53304;54.550;18.526;2022-08-25T15:32:25;27.63;;;13.40;;
66487;SDS011;53304;54.550;18.526;2022-08-25T15:34:50;31.60;;;12.98;;
66487;SDS011;53304;54.550;18.526;2022-08-25T15:37:18;27.58;;;13.27;;
66487;SDS011;53304;54.550;18.526;2022-08-25T15:39:46;29.95;;;13.90;;
66487;SDS011;53304;54.550;18.526;2022-08-25T15:42:12;25.23;;;12.32;;
66487;SDS011;53304;54.550;18.526;2022-08-25T15:44:43;27.00;;;11.75;;
66487;SDS011;53304;54.550;18.526;2022-08-25T15:47:09;32.70;;;12.07;;
66487;SDS011;53304;54.550;18.526;2022-08-25T15:49:34;31.13;;;10.70;;
66487;SDS011;53304;54.550;18.526;2022-08-25T15:52:00;35.15;;;11.32;;
66487;SDS011;53304;54.550;18.526;2022-08-25T15:54:31;26.83;;;10.65;;
66487;SDS011;53304;54.550;18.526;2022-08-25T15:56:59;24.45;;;9.88;;
66487;SDS011;53304;54.550;18.526;2022-08-25T15:59:27;24.90;;;10.20;;
66487;SDS011;53304;54.550;18.526;2022-08-25T16:01:56;23.50;;;10.30;;
66487;SDS011;53304;54.550;18.526;2022-08-25T16:04:25;29.08;;;9.98;;
66487;SDS011;53304;54.550;18.526;2022-08-25T16:06:51;29.25;;;10.35;;
66487;SDS011;53304;54.550;18.526;2022-08-25T16:09:18;23.83;;;9.80;;
66487;SDS011;53304;54.550;18.526;2022-08-25T16:11:44;20.80;;;10.02;;
66487;SDS011;53304;54.550;18.526;2022-08-25T16:14:09;23.50;;;9.60;;
66487;SDS011;53304;54.550;18.526;2022-08-25T16:16:35;30.90;;;10.38;;
66487;SDS011;53304;54.550;18.526;2022-08-25T16:19:06;24.85;;;9.25;;
66487;SDS011;53304;54.550;18.526;2022-08-25T16:21:32;28.50;;;9.95;;
66487;SDS011;53304;54.550;18.526;2022-08-25T16:24:00;25.08;;;9.38;;
66487;SDS011;53304;54.550;18.526;2022-08-25T16:26:29;24.65;;;9.68;;
66487;SDS011;53304;54.550;18.526;2022-08-25T16:29:03;26.20;;;9.52;;
66487;SDS011;53304;54.550;18.526;2022-08-25T16:31:28;24.85;;;9.73;;
66487;SDS011;53304;54.550;18.526;2022-08-25T16:33:54;20.92;;;10.00;;
66487;SDS011;53304;54.550;18.526;2022-08-25T16:36:23;24.10;;;10.00;;
66487;SDS011;53304;54.550;18.526;2022-08-25T16:38:49;22.63;;;9.60;;
66487;SDS011;53304;54.550;18.526;2022-08-25T16:41:19;23.38;;;9.52;;
66487;SDS011;53304;54.550;18.526;2022-08-25T16:43:51;21.38;;;10.15;;
66487;SDS011;53304;54.550;18.526;2022-08-25T16:46:18;23.50;;;9.63;;
66487;SDS011;53304;54.550;18.526;2022-08-25T16:48:48;24.55;;;10.52;;
66487;SDS011;53304;54.550;18.526;2022-08-25T16:51:18;25.25;;;9.52;;
66487;SDS011;53304;54.550;18.526;2022-08-25T16:53:45;25.85;;;9.38;;
66487;SDS011;53304;54.550;18.526;2022-08-25T16:56:32;21.00;;;9.07;;
66487;SDS011;53304;54.550;18.526;2022-08-25T16:59:00;21.90;;;9.30;;
66487;SDS011;53304;54.550;18.526;2022-08-25T17:01:29;18.75;;;9.05;;
66487;SDS011;53304;54.550;18.526;2022-08-25T17:04:00;21.17;;;9.02;;
66487;SDS011;53304;54.550;18.526;2022-08-25T17:06:32;23.02;;;8.45;;
66487;SDS011;53304;54.550;18.526;2022-08-25T17:09:00;18.45;;;8.00;;
66487;SDS011;53304;54.550;18.526;2022-08-25T17:11:26;19.25;;;8.45;;